createdAt,value
2023-01-17T00:00:32.763Z,94076.78
2023-01-17T00:02:59.244Z,94083.41
2023-01-17T00:05:44.261Z,94077.34
2023-01-17T00:08:31.090Z,94073.81
2023-01-17T00:10:58.301Z,94087.25
2023-01-17T00:13:24.707Z,94069.97
2023-01-17T00:15:51.168Z,94075.09
2023-01-17T00:18:17.617Z,94076.78
2023-01-17T00:21:02.703Z,94087.91
2023-01-17T00:23:47.408Z,94101.22
2023-01-17T00:26:16.995Z,94106.75
2023-01-17T00:28:44.398Z,94109.22
2023-01-17T00:31:12.872Z,94095.88
2023-01-17T00:33:39.235Z,94113.88
2023-01-17T00:36:06.508Z,94115.09
2023-01-17T00:38:35.590Z,94126.50
2023-01-17T00:41:13.648Z,94127.78
2023-01-17T00:43:58.398Z,94126.72
2023-01-17T00:46:43.672Z,94125.75
2023-01-17T00:49:28.575Z,94130.00
2023-01-17T00:52:13.269Z,94147.28
2023-01-17T00:54:57.907Z,94143.13
2023-01-17T00:57:42.617Z,94153.03
2023-01-17T01:00:28.364Z,94158.25
2023-01-17T01:03:13.217Z,94163.91
2023-01-17T01:05:57.878Z,94161.25
2023-01-17T01:08:46.255Z,94162.50
2023-01-17T01:11:34.173Z,94169.84
2023-01-17T01:14:20.304Z,94180.09
2023-01-17T01:17:05.210Z,94186.03
2023-01-17T01:19:50.376Z,94172.72
2023-01-17T01:22:35.643Z,94170.47
2023-01-17T01:25:20.751Z,94189.88
2023-01-17T01:28:05.474Z,94200.59
2023-01-17T01:30:50.824Z,94201.13
2023-01-17T01:33:20.297Z,94201.63
2023-01-17T01:35:55.645Z,94213.16
2023-01-17T01:38:24.399Z,94219.25
2023-01-17T01:40:53.104Z,94217.25
2023-01-17T01:43:47.965Z,94230.38
2023-01-17T01:46:20.324Z,94228.13
2023-01-17T01:48:52.257Z,94241.13
2023-01-17T01:51:42.483Z,94237.91
2023-01-17T01:54:20.118Z,94248.16
2023-01-17T01:56:47.808Z,94258.53
2023-01-17T01:59:19.223Z,94253.94
2023-01-17T02:01:47.284Z,94249.97
2023-01-17T02:04:14.925Z,94242.03
2023-01-17T02:07:07.198Z,94257.00
2023-01-17T02:09:34.467Z,94265.94
2023-01-17T02:12:02.107Z,94263.50
2023-01-17T02:14:28.723Z,94271.31
2023-01-17T02:17:22.500Z,94259.88
2023-01-17T02:20:13.420Z,94279.72
2023-01-17T02:23:14.781Z,94288.66
2023-01-17T02:25:59.316Z,94290.28
2023-01-17T02:28:52.461Z,94284.81
2023-01-17T02:31:32.221Z,94288.38
2023-01-17T02:34:02.778Z,94283.06
2023-01-17T02:36:36.853Z,94275.50
2023-01-17T02:39:29.376Z,94283.16
2023-01-17T02:42:04.571Z,94285.41
2023-01-17T02:44:43.421Z,94278.03
2023-01-17T02:47:26.331Z,94271.19
2023-01-17T02:49:56.873Z,94277.34
2023-01-17T02:52:50.829Z,94282.88
2023-01-17T02:55:43.395Z,94278.84
2023-01-17T02:58:28.509Z,94288.50
2023-01-17T03:01:09.660Z,94294.44
2023-01-17T03:04:04.550Z,94292.16
2023-01-17T03:07:00.494Z,94302.28
2023-01-17T03:09:29.392Z,94298.06
2023-01-17T03:11:55.870Z,94302.88
2023-01-17T03:14:22.255Z,94308.00
2023-01-17T03:16:48.900Z,94300.38
2023-01-17T03:19:16.083Z,94313.16
2023-01-17T03:21:42.529Z,94319.19
2023-01-17T03:24:08.904Z,94316.94
2023-01-17T03:26:35.253Z,94327.91
2023-01-17T03:29:01.970Z,94319.69
2023-01-17T03:31:28.324Z,94321.78
2023-01-17T03:33:54.698Z,94321.19
2023-01-17T03:36:21.045Z,94336.94
2023-01-17T03:38:47.432Z,94333.53
2023-01-17T03:41:13.806Z,94346.38
2023-01-17T03:43:40.177Z,94324.91
2023-01-17T03:46:17.170Z,94345.03
2023-01-17T03:48:43.584Z,94350.28
2023-01-17T03:51:09.941Z,94345.94
2023-01-17T03:53:36.284Z,94344.78
2023-01-17T03:56:02.662Z,94348.34
2023-01-17T03:58:29.013Z,94341.31
2023-01-17T04:00:55.500Z,94342.38
2023-01-17T04:03:22.338Z,94335.16
2023-01-17T04:05:48.679Z,94339.53
2023-01-17T04:08:15.045Z,94340.31
2023-01-17T04:10:41.573Z,94335.69
2023-01-17T04:13:08.003Z,94337.50
2023-01-17T04:15:34.432Z,94327.56
2023-01-17T04:18:01.263Z,94331.28
2023-01-17T04:20:27.557Z,94337.75
2023-01-17T04:22:53.907Z,94312.72
2023-01-17T04:25:20.297Z,94330.16
2023-01-17T04:27:46.638Z,94331.81
2023-01-17T04:30:13.097Z,94342.44
2023-01-17T04:32:39.465Z,94337.38
2023-01-17T04:35:07.087Z,94346.53
2023-01-17T04:37:33.512Z,94343.72
2023-01-17T04:39:59.893Z,94334.53
2023-01-17T04:42:26.304Z,94340.09
2023-01-17T04:44:52.763Z,94326.88
2023-01-17T04:47:19.106Z,94325.56
2023-01-17T04:49:45.516Z,94345.50
2023-01-17T04:52:12.002Z,94348.06
2023-01-17T04:54:38.408Z,94346.72
2023-01-17T04:57:04.787Z,94349.09
2023-01-17T04:59:31.139Z,94337.41
2023-01-17T05:01:57.588Z,94335.19
2023-01-17T05:04:24.169Z,94344.66
2023-01-17T05:06:50.527Z,94348.69
2023-01-17T05:09:16.888Z,94348.25
2023-01-17T05:11:43.227Z,94366.13
2023-01-17T05:14:10.496Z,94364.75
2023-01-17T05:16:36.866Z,94370.91
2023-01-17T05:19:03.245Z,94372.56
2023-01-17T05:21:30.513Z,94380.41
2023-01-17T05:23:57.022Z,94386.97
2023-01-17T05:26:23.818Z,94384.75
2023-01-17T05:28:51.186Z,94397.97
2023-01-17T05:31:17.595Z,94376.03
2023-01-17T05:33:44.006Z,94387.44
2023-01-17T05:36:10.399Z,94394.66
2023-01-17T05:38:36.748Z,94383.09
2023-01-17T05:41:05.015Z,94398.25
2023-01-17T05:43:31.519Z,94401.72
2023-01-17T05:45:58.012Z,94394.19
2023-01-17T05:48:24.478Z,94392.88
2023-01-17T05:50:52.204Z,94388.38
2023-01-17T05:53:18.624Z,94400.81
2023-01-17T05:55:45.032Z,94399.78
2023-01-17T05:58:19.776Z,94397.22
2023-01-17T06:00:46.989Z,94387.94
2023-01-17T06:03:14.499Z,94394.81
2023-01-17T06:05:41.869Z,94387.31
2023-01-17T06:08:08.533Z,94384.00
2023-01-17T06:10:34.955Z,94382.22
2023-01-17T06:13:09.683Z,94401.25
2023-01-17T06:15:37.523Z,94402.16
2023-01-17T06:18:12.366Z,94405.47
2023-01-17T06:20:39.601Z,94408.31
2023-01-17T06:23:07.737Z,94416.25
2023-01-17T06:25:38.645Z,94429.47
2023-01-17T06:28:07.037Z,94428.25
2023-01-17T06:30:33.900Z,94433.22
2023-01-17T06:33:00.473Z,94438.47
2023-01-17T06:35:26.895Z,94430.22
2023-01-17T06:37:55.419Z,94439.09
2023-01-17T06:40:22.551Z,94442.41
2023-01-17T06:42:48.901Z,94430.22
2023-01-17T06:45:15.260Z,94438.16
2023-01-17T06:47:42.356Z,94438.47
2023-01-17T06:50:12.346Z,94450.81
2023-01-17T06:52:39.073Z,94444.50
2023-01-17T06:55:06.094Z,94444.03
2023-01-17T06:57:33.368Z,94448.25
2023-01-17T06:59:59.745Z,94452.91
2023-01-17T07:02:26.144Z,94449.44
2023-01-17T07:04:52.547Z,94441.06
2023-01-17T07:07:18.939Z,94439.38
2023-01-17T07:09:45.394Z,94428.28
2023-01-17T07:12:11.767Z,94431.00
2023-01-17T07:14:38.101Z,94440.16
2023-01-17T07:17:04.850Z,94431.28
2023-01-17T07:19:31.224Z,94441.66
2023-01-17T07:21:57.631Z,94425.56
2023-01-17T07:24:24.012Z,94428.72
2023-01-17T07:26:51.488Z,94438.47
2023-01-17T07:29:18.230Z,94434.72
2023-01-17T07:31:44.861Z,94422.72
2023-01-17T07:34:11.522Z,94423.00
2023-01-17T07:36:38.021Z,94420.59
2023-01-17T07:39:06.310Z,94427.78
2023-01-17T07:41:34.625Z,94433.50
2023-01-17T07:44:00.980Z,94422.84
2023-01-17T07:46:27.797Z,94430.66
2023-01-17T07:48:54.272Z,94411.72
2023-01-17T07:51:20.651Z,94421.19
2023-01-17T07:53:46.987Z,94417.13
2023-01-17T07:56:13.340Z,94419.25
2023-01-17T07:58:39.735Z,94402.59
2023-01-17T08:01:12.734Z,94405.72
2023-01-17T08:03:40.305Z,94402.28
2023-01-17T08:06:15.895Z,94401.09
2023-01-17T08:08:42.249Z,94397.63
2023-01-17T08:11:08.614Z,94396.56
2023-01-17T08:13:34.973Z,94402.25
2023-01-17T08:16:03.227Z,94391.91
2023-01-17T08:18:30.199Z,94392.81
2023-01-17T08:20:56.752Z,94400.59
2023-01-17T08:23:23.206Z,94398.16
2023-01-17T08:25:49.687Z,94398.75
2023-01-17T08:28:16.065Z,94392.19
2023-01-17T08:30:42.600Z,94390.38
2023-01-17T08:33:08.945Z,94378.19
2023-01-17T08:35:36.313Z,94385.44
2023-01-17T08:38:04.848Z,94385.88
2023-01-17T08:40:32.618Z,94373.41
2023-01-17T08:43:00.862Z,94374.63
2023-01-17T08:45:28.152Z,94373.00
2023-01-17T08:47:55.043Z,94369.25
2023-01-17T08:50:21.513Z,94366.53
2023-01-17T08:52:48.814Z,94363.09
2023-01-17T08:55:16.031Z,94375.28
2023-01-17T08:57:42.729Z,94379.47
2023-01-17T09:00:10.092Z,94375.88
2023-01-17T09:02:36.498Z,94387.16
2023-01-17T09:05:02.900Z,94385.06
2023-01-17T09:07:29.427Z,94374.88
2023-01-17T09:09:55.836Z,94383.88
2023-01-17T09:12:22.366Z,94386.41
2023-01-17T09:14:48.965Z,94379.47
2023-01-17T09:17:16.024Z,94389.84
2023-01-17T09:19:47.556Z,94389.69
2023-01-17T09:22:14.347Z,94394.50
2023-01-17T09:24:41.305Z,94395.72
2023-01-17T09:27:07.751Z,94377.34
2023-01-17T09:29:34.115Z,94384.69
2023-01-17T09:32:00.918Z,94373.28
2023-01-17T09:34:27.460Z,94389.78
2023-01-17T09:36:53.862Z,94388.84
2023-01-17T09:39:20.247Z,94393.59
2023-01-17T09:41:58.822Z,94393.69
2023-01-17T09:44:53.611Z,94387.06
2023-01-17T09:47:32.633Z,94393.06
2023-01-17T09:50:25.343Z,94402.16
2023-01-17T09:53:00.569Z,94399.88
2023-01-17T09:55:32.089Z,94390.94
2023-01-17T09:58:15.866Z,94399.22
2023-01-17T10:01:01.266Z,94401.88
2023-01-17T10:03:53.591Z,94409.44
2023-01-17T10:06:45.235Z,94406.41
2023-01-17T10:09:33.922Z,94405.50
2023-01-17T10:12:12.344Z,94408.94
2023-01-17T10:15:23.328Z,94411.50
2023-01-17T10:18:07.692Z,94405.31
2023-01-17T10:20:40.011Z,94404.25
2023-01-17T10:23:15.460Z,94402.44
2023-01-17T10:25:49.142Z,94386.50
2023-01-17T10:28:22.722Z,94393.97
2023-01-17T10:30:51.419Z,94390.63
2023-01-17T10:33:31.181Z,94402.13
2023-01-17T10:36:00.521Z,94403.13
2023-01-17T10:38:31.562Z,94401.13
2023-01-17T10:41:04.208Z,94396.25
2023-01-17T10:43:39.937Z,94398.34
2023-01-17T10:46:15.949Z,94389.66
2023-01-17T10:48:46.294Z,94404.09
2023-01-17T10:51:16.296Z,94397.97
2023-01-17T10:53:45.305Z,94403.41
2023-01-17T10:56:14.700Z,94394.00
2023-01-17T10:58:41.219Z,94400.00
2023-01-17T11:01:18.379Z,94391.28
2023-01-17T11:03:50.650Z,94396.28
2023-01-17T11:06:20.341Z,94387.22
2023-01-17T11:08:57.705Z,94386.31
2023-01-17T11:11:30.861Z,94390.59
2023-01-17T11:14:00.855Z,94377.28
2023-01-17T11:16:31.313Z,94378.88
2023-01-17T11:19:06.122Z,94378.03
2023-01-17T11:21:33.163Z,94378.22
2023-01-17T11:24:10.169Z,94368.41
2023-01-17T11:26:38.408Z,94361.34
2023-01-17T11:29:36.731Z,94374.81
2023-01-17T11:32:21.977Z,94386.69
2023-01-17T11:35:09.577Z,94386.56
2023-01-17T11:37:36.791Z,94386.97
2023-01-17T11:40:08.451Z,94374.22
2023-01-17T11:42:38.503Z,94374.00
2023-01-17T11:45:23.617Z,94372.19
2023-01-17T11:48:04.022Z,94362.78
2023-01-17T11:50:30.441Z,94353.84
2023-01-17T11:53:06.129Z,94356.25
2023-01-17T11:55:32.850Z,94358.28
2023-01-17T11:57:59.827Z,94351.28
2023-01-17T12:00:37.963Z,94335.38
2023-01-17T12:03:16.636Z,94340.41
2023-01-17T12:05:46.804Z,94342.84
2023-01-17T12:08:25.848Z,94337.94
2023-01-17T12:11:16.922Z,94332.69
2023-01-17T12:14:01.847Z,94327.56
2023-01-17T12:17:08.614Z,94331.41
2023-01-17T12:19:55.027Z,94321.00
2023-01-17T12:22:40.100Z,94320.78
2023-01-17T12:25:22.788Z,94320.25
2023-01-17T12:28:17.185Z,94303.78
2023-01-17T12:30:55.652Z,94301.56
2023-01-17T12:33:43.542Z,94292.91
2023-01-17T12:36:30.948Z,94294.41
2023-01-17T12:39:01.138Z,94302.31
2023-01-17T12:41:43.954Z,94286.72
2023-01-17T12:44:15.992Z,94297.00
2023-01-17T12:47:00.097Z,94289.22
2023-01-17T12:49:41.670Z,94279.06
2023-01-17T12:52:19.613Z,94286.56
2023-01-17T12:54:52.621Z,94289.09
2023-01-17T12:57:23.313Z,94279.81
2023-01-17T13:00:08.113Z,94282.50
2023-01-17T13:02:53.973Z,94270.63
2023-01-17T13:05:27.013Z,94281.19
2023-01-17T13:08:14.529Z,94281.53
2023-01-17T13:10:51.206Z,94282.50
2023-01-17T13:13:26.357Z,94271.19
2023-01-17T13:16:11.472Z,94269.47
2023-01-17T13:18:43.901Z,94266.47
2023-01-17T13:21:22.194Z,94276.38
2023-01-17T13:24:03.780Z,94279.28
2023-01-17T13:26:53.201Z,94266.88
2023-01-17T13:29:49.631Z,94270.41
2023-01-17T13:32:41.961Z,94269.84
2023-01-17T13:35:20.496Z,94277.63
2023-01-17T13:38:02.425Z,94281.44
2023-01-17T13:41:01.317Z,94273.53
2023-01-17T13:43:33.732Z,94273.19
2023-01-17T13:46:03.256Z,94266.34
2023-01-17T13:48:38.043Z,94273.41
2023-01-17T13:51:06.513Z,94261.00
2023-01-17T13:53:35.696Z,94269.13
2023-01-17T13:56:26.155Z,94270.50
2023-01-17T13:58:54.693Z,94276.03
2023-01-17T14:01:24.243Z,94274.22
2023-01-17T14:03:51.366Z,94278.16
2023-01-17T14:06:32.856Z,94283.00
2023-01-17T14:09:01.523Z,94277.19
2023-01-17T14:11:27.983Z,94254.56
2023-01-17T14:13:54.510Z,94269.84
2023-01-17T14:16:21.149Z,94275.81
2023-01-17T14:18:48.454Z,94257.22
2023-01-17T14:21:33.631Z,94270.13
2023-01-17T14:24:10.581Z,94264.88
2023-01-17T14:26:45.833Z,94272.56
2023-01-17T14:29:46.376Z,94266.72
2023-01-17T14:32:15.927Z,94264.78
2023-01-17T14:34:47.381Z,94262.84
2023-01-17T14:37:41.617Z,94261.34
2023-01-17T14:40:21.399Z,94256.84
2023-01-17T14:42:52.948Z,94261.75
2023-01-17T14:45:26.562Z,94255.44
2023-01-17T14:47:53.179Z,94264.72
2023-01-17T14:50:24.315Z,94267.84
2023-01-17T14:53:12.509Z,94261.13
2023-01-17T14:56:02.011Z,94264.53
2023-01-17T14:58:32.941Z,94269.00
2023-01-17T15:01:02.823Z,94268.44
2023-01-17T15:03:33.456Z,94260.31
2023-01-17T15:06:11.158Z,94260.94
2023-01-17T15:08:37.915Z,94273.72
2023-01-17T15:11:07.511Z,94255.75
2023-01-17T15:13:44.352Z,94264.81
2023-01-17T15:16:35.812Z,94275.34
2023-01-17T15:19:09.244Z,94285.41
2023-01-17T15:21:42.416Z,94273.41
2023-01-17T15:24:25.533Z,94283.97
2023-01-17T15:26:52.112Z,94279.75
2023-01-17T15:29:31.970Z,94298.66
2023-01-17T15:32:00.632Z,94293.13
2023-01-17T15:34:28.738Z,94282.31
2023-01-17T15:36:58.267Z,94290.44
2023-01-17T15:39:30.175Z,94286.94
2023-01-17T15:42:04.525Z,94294.19
2023-01-17T15:44:49.422Z,94288.81
2023-01-17T15:47:38.675Z,94298.41
2023-01-17T15:50:20.300Z,94298.75
2023-01-17T15:52:53.658Z,94287.38
2023-01-17T15:55:39.259Z,94286.75
2023-01-17T15:58:22.968Z,94276.75
2023-01-17T16:00:49.436Z,94293.56
2023-01-17T16:03:26.016Z,94294.22
2023-01-17T16:05:54.156Z,94280.41
2023-01-17T16:08:38.680Z,94284.97
2023-01-17T16:11:06.748Z,94287.94
2023-01-17T16:13:43.185Z,94269.66
2023-01-17T16:16:19.129Z,94283.34
2023-01-17T16:18:46.688Z,94282.63
2023-01-17T16:21:22.204Z,94287.34
2023-01-17T16:23:49.241Z,94301.56
2023-01-17T16:26:15.637Z,94295.34
2023-01-17T16:28:42.426Z,94287.88
2023-01-17T16:31:08.968Z,94298.03
2023-01-17T16:33:35.428Z,94300.91
2023-01-17T16:36:01.805Z,94293.09
2023-01-17T16:38:28.205Z,94289.09
2023-01-17T16:40:54.620Z,94298.56
2023-01-17T16:43:21.015Z,94297.06
2023-01-17T16:45:50.305Z,94297.66
2023-01-17T16:48:19.163Z,94314.03
2023-01-17T16:50:50.429Z,94309.50
2023-01-17T16:53:21.489Z,94311.91
2023-01-17T16:55:50.685Z,94303.22
2023-01-17T16:58:17.800Z,94307.75
2023-01-17T17:00:44.142Z,94307.44
2023-01-17T17:03:20.947Z,94298.88
2023-01-17T17:05:58.317Z,94299.66
2023-01-17T17:08:24.998Z,94305.66
2023-01-17T17:10:51.509Z,94314.38
2023-01-17T17:13:18.009Z,94307.47
2023-01-17T17:15:44.792Z,94302.97
2023-01-17T17:18:16.441Z,94301.00
2023-01-17T17:20:44.074Z,94304.91
2023-01-17T17:23:10.756Z,94316.63
2023-01-17T17:25:37.554Z,94314.53
2023-01-17T17:28:05.300Z,94312.28
2023-01-17T17:30:31.655Z,94314.22
2023-01-17T17:32:58.247Z,94323.84
2023-01-17T17:35:24.608Z,94302.66
2023-01-17T17:37:51.129Z,94302.84
2023-01-17T17:40:17.855Z,94318.28
2023-01-17T17:42:44.185Z,94300.72
2023-01-17T17:45:10.881Z,94308.22
2023-01-17T17:47:37.315Z,94319.03
2023-01-17T17:50:04.218Z,94325.19
2023-01-17T17:52:32.234Z,94313.34
2023-01-17T17:54:58.627Z,94319.03
2023-01-17T17:57:24.987Z,94322.78
2023-01-17T17:59:51.381Z,94324.28
2023-01-17T18:02:17.779Z,94323.81
2023-01-17T18:04:44.216Z,94325.63
2023-01-17T18:07:10.621Z,94326.25
2023-01-17T18:09:37.029Z,94325.78
2023-01-17T18:12:03.518Z,94332.22
2023-01-17T18:14:30.095Z,94342.28
2023-01-17T18:16:57.187Z,94340.78
2023-01-17T18:19:25.811Z,94349.19
2023-01-17T18:21:52.697Z,94339.88
2023-01-17T18:24:23.701Z,94341.81
2023-01-17T18:26:58.769Z,94352.59
2023-01-17T18:29:26.759Z,94343.16
2023-01-17T18:31:54.246Z,94352.03
2023-01-17T18:34:24.082Z,94354.41
2023-01-17T18:36:51.737Z,94346.75
2023-01-17T18:39:20.516Z,94355.44
2023-01-17T18:41:47.784Z,94359.34
2023-01-17T18:44:14.401Z,94355.44
2023-01-17T18:46:42.014Z,94366.41
2023-01-17T18:49:11.425Z,94353.19
2023-01-17T18:51:37.812Z,94362.19
2023-01-17T18:54:06.959Z,94371.06
2023-01-17T18:56:34.972Z,94368.66
2023-01-17T18:59:02.109Z,94387.56
2023-01-17T19:01:30.577Z,94383.63
2023-01-17T19:03:59.458Z,94375.06
2023-01-17T19:06:34.699Z,94390.53
2023-01-17T19:09:02.534Z,94393.53
2023-01-17T19:11:29.078Z,94398.00
2023-01-17T19:13:56.252Z,94393.19
2023-01-17T19:16:28.576Z,94399.69
2023-01-17T19:18:57.235Z,94397.13
2023-01-17T19:21:25.912Z,94403.72
2023-01-17T19:23:52.648Z,94409.13
2023-01-17T19:26:20.367Z,94406.75
2023-01-17T19:28:48.756Z,94395.94
2023-01-17T19:31:17.049Z,94406.13
2023-01-17T19:33:45.078Z,94409.00
2023-01-17T19:36:16.961Z,94415.88
2023-01-17T19:38:52.284Z,94405.69
2023-01-17T19:41:28.439Z,94415.13
2023-01-17T19:43:56.475Z,94428.44
2023-01-17T19:46:25.960Z,94423.94
2023-01-17T19:48:52.947Z,94435.16
2023-01-17T19:51:19.343Z,94432.63
2023-01-17T19:53:45.691Z,94434.88
2023-01-17T19:56:14.509Z,94435.34
2023-01-17T19:58:41.905Z,94426.63
2023-01-17T20:01:20.511Z,94433.69
2023-01-17T20:03:48.780Z,94430.06
2023-01-17T20:06:19.063Z,94436.28
2023-01-17T20:08:45.966Z,94424.25
2023-01-17T20:11:15.973Z,94420.88
2023-01-17T20:13:42.383Z,94422.66
2023-01-17T20:16:11.469Z,94425.22
2023-01-17T20:18:38.584Z,94428.06
2023-01-17T20:21:07.751Z,94432.59
2023-01-17T20:23:35.729Z,94422.81
2023-01-17T20:26:04.430Z,94431.38
2023-01-17T20:28:33.255Z,94440.22
2023-01-17T20:31:14.626Z,94439.19
2023-01-17T20:33:43.087Z,94440.50
2023-01-17T20:36:12.634Z,94438.09
2023-01-17T20:38:45.343Z,94438.72
2023-01-17T20:41:18.465Z,94437.50
2023-01-17T20:43:49.677Z,94448.50
2023-01-17T20:46:17.083Z,94440.69
2023-01-17T20:48:45.625Z,94449.84
2023-01-17T20:51:12.591Z,94450.31
2023-01-17T20:53:40.803Z,94438.00
2023-01-17T20:56:08.754Z,94446.41
2023-01-17T20:58:35.412Z,94443.84
2023-01-17T21:01:02.311Z,94448.19
2023-01-17T21:03:29.221Z,94446.41
2023-01-17T21:06:09.459Z,94447.59
2023-01-17T21:08:40.081Z,94454.66
2023-01-17T21:11:08.017Z,94451.53
2023-01-17T21:13:34.814Z,94444.59
2023-01-17T21:16:01.253Z,94459.16
2023-01-17T21:18:31.540Z,94454.03
2023-01-17T21:21:07.279Z,94457.97
2023-01-17T21:23:37.791Z,94448.03
2023-01-17T21:26:05.737Z,94458.09
2023-01-17T21:28:37.176Z,94458.41
2023-01-17T21:31:33.390Z,94465.16
2023-01-17T21:34:05.318Z,94472.53
2023-01-17T21:36:35.283Z,94467.13
2023-01-17T21:39:05.071Z,94462.63
2023-01-17T21:41:34.704Z,94458.13
2023-01-17T21:44:04.489Z,94454.97
2023-01-17T21:46:30.902Z,94450.47
2023-01-17T21:48:57.667Z,94455.28
2023-01-17T21:51:24.841Z,94459.03
2023-01-17T21:53:51.218Z,94459.81
2023-01-17T21:56:36.187Z,94456.47
2023-01-17T21:59:02.667Z,94457.66
2023-01-17T22:01:32.132Z,94474.66
2023-01-17T22:04:01.492Z,94467.75
2023-01-17T22:06:38.504Z,94465.34
2023-01-17T22:09:05.774Z,94464.56
2023-01-17T22:11:32.501Z,94452.41
2023-01-17T22:13:59.385Z,94463.81
2023-01-17T22:16:25.922Z,94468.16
2023-01-17T22:18:52.565Z,94472.06
2023-01-17T22:21:21.671Z,94459.47
2023-01-17T22:23:53.116Z,94474.75
2023-01-17T22:26:21.429Z,94463.19
2023-01-17T22:28:48.249Z,94459.41
2023-01-17T22:31:17.319Z,94470.38
2023-01-17T22:33:45.600Z,94463.34
2023-01-17T22:36:13.756Z,94466.94
2023-01-17T22:38:44.345Z,94468.28
2023-01-17T22:41:15.841Z,94457.91
2023-01-17T22:43:44.671Z,94460.78
2023-01-17T22:46:14.567Z,94464.66
2023-01-17T22:48:41.220Z,94455.19
2023-01-17T22:51:10.296Z,94469.59
2023-01-17T22:53:41.320Z,94463.69
2023-01-17T22:56:12.015Z,94476.47
2023-01-17T22:58:42.079Z,94463.41
2023-01-17T23:01:11.177Z,94465.47
2023-01-17T23:03:38.270Z,94464.94
2023-01-17T23:06:13.706Z,94467.75
2023-01-17T23:08:42.935Z,94456.94
2023-01-17T23:11:40.673Z,94462.50
2023-01-17T23:14:30.521Z,94469.41
2023-01-17T23:17:21.543Z,94467.94
2023-01-17T23:19:50.837Z,94454.72
2023-01-17T23:22:19.844Z,94456.09
2023-01-17T23:24:52.179Z,94456.38
2023-01-17T23:27:50.440Z,94459.84
2023-01-17T23:30:26.257Z,94458.94
2023-01-17T23:32:58.555Z,94452.78
2023-01-17T23:35:28.477Z,94450.72
2023-01-17T23:38:14.064Z,94455.66
2023-01-17T23:40:41.336Z,94446.50
2023-01-17T23:43:23.089Z,94443.81
2023-01-17T23:45:51.239Z,94458.22
2023-01-17T23:48:18.076Z,94446.38
2023-01-17T23:50:46.478Z,94457.28
2023-01-17T23:53:22.616Z,94447.69
2023-01-17T23:55:56.741Z,94459.38
2023-01-17T23:58:25.193Z,94455.50
